SWR560 LSZH-LFMN
Flight info
| Callsign | SWR560 |
|---|---|
| Flight time | N/A |
| Altitude | 30000 |
| Route | VEBIT T53 GERSA DCT SOSON DCT ODINA/N0468F310 DCT ENOBA Z185 ASBOP/N0387F190 Z185 BORDI |
| Aircraft | A21N/M-SDE2E3FGHIRWXY/LB1 |
Departure
| Time | 2026-05-04 19:28 |
|---|---|
| Airport | Zürich Airport (LSZH) |
Arrival
| Time | N/A |
|---|---|
| Airport | Nice-Côte d'Azur Airport (LFMN) |
| Time | Latitude | Longitude | Altitude | Speed | Heading |
|---|---|---|---|---|---|
| 2026-05-04 19:13 | 47.45337 | 8.55843 | 1397 ft | 0 kts | 6° |
| 2026-05-04 19:14 | 47.45332 | 8.55842 | 1397 ft | 3 kts | 6° |
| 2026-05-04 19:14 | 47.45317 | 8.55840 | 1405 ft | 3 kts | 6° |
| 2026-05-04 19:14 | 47.45305 | 8.55838 | 1401 ft | 3 kts | 6° |
| 2026-05-04 19:14 | 47.45293 | 8.55836 | 1404 ft | 3 kts | 6° |
| 2026-05-04 19:15 | 47.45275 | 8.55833 | 1404 ft | 3 kts | 6° |
| 2026-05-04 19:15 | 47.45257 | 8.55830 | 1404 ft | 3 kts | 6° |
| 2026-05-04 19:15 | 47.45242 | 8.55828 | 1404 ft | 1 kts | 6° |
| 2026-05-04 19:15 | 47.45243 | 8.55828 | 1404 ft | 0 kts | 6° |
| 2026-05-04 19:16 | 47.45246 | 8.55828 | 1404 ft | 0 kts | 3° |
| 2026-05-04 19:16 | 47.45251 | 8.55824 | 1406 ft | 5 kts | 346° |
| 2026-05-04 19:16 | 47.45265 | 8.55747 | 1397 ft | 8 kts | 276° |
| 2026-05-04 19:16 | 47.45269 | 8.55667 | 1397 ft | 7 kts | 274° |
| 2026-05-04 19:17 | 47.45275 | 8.55592 | 1404 ft | 7 kts | 284° |
| 2026-05-04 19:17 | 47.45296 | 8.55508 | 1400 ft | 10 kts | 296° |
| 2026-05-04 19:17 | 47.45332 | 8.55410 | 1402 ft | 12 kts | 298° |
| 2026-05-04 19:17 | 47.45369 | 8.55312 | 1405 ft | 10 kts | 300° |
| 2026-05-04 19:18 | 47.45406 | 8.55235 | 1406 ft | 6 kts | 316° |
| 2026-05-04 19:18 | 47.45421 | 8.55201 | 1402 ft | 5 kts | 303° |
| 2026-05-04 19:18 | 47.45446 | 8.55162 | 1409 ft | 8 kts | 317° |
| 2026-05-04 19:18 | 47.45463 | 8.55140 | 1406 ft | 14 kts | 322° |
| 2026-05-04 19:20 | 47.45559 | 8.55125 | 1402 ft | 26 kts | 15° |
| 2026-05-04 19:20 | 47.45669 | 8.55195 | 1404 ft | 22 kts | 39° |
| 2026-05-04 19:20 | 47.45676 | 8.55295 | 1399 ft | 6 kts | 95° |
| 2026-05-04 19:21 | 47.45673 | 8.55350 | 1404 ft | 5 kts | 95° |
| 2026-05-04 19:21 | 47.45670 | 8.55401 | 1399 ft | 5 kts | 95° |
| 2026-05-04 19:21 | 47.45666 | 8.55454 | 1397 ft | 6 kts | 95° |
| 2026-05-04 19:21 | 47.45661 | 8.55535 | 1404 ft | 9 kts | 95° |
| 2026-05-04 19:22 | 47.45657 | 8.55603 | 1397 ft | 11 kts | 95° |
| 2026-05-04 19:22 | 47.45648 | 8.55726 | 1400 ft | 13 kts | 97° |
| 2026-05-04 19:22 | 47.45636 | 8.55862 | 1397 ft | 13 kts | 104° |
| 2026-05-04 19:22 | 47.45627 | 8.55978 | 1397 ft | 12 kts | 96° |
| 2026-05-04 19:23 | 47.45617 | 8.56110 | 1406 ft | 15 kts | 97° |
| 2026-05-04 19:23 | 47.45605 | 8.56264 | 1404 ft | 12 kts | 94° |
| 2026-05-04 19:23 | 47.45598 | 8.56371 | 1397 ft | 10 kts | 95° |
| 2026-05-04 19:23 | 47.45592 | 8.56481 | 1400 ft | 12 kts | 93° |
| 2026-05-04 19:24 | 47.45585 | 8.56612 | 1397 ft | 14 kts | 95° |
| 2026-05-04 19:24 | 47.45576 | 8.56752 | 1402 ft | 12 kts | 96° |
| 2026-05-04 19:24 | 47.45568 | 8.56839 | 1397 ft | 5 kts | 96° |
| 2026-05-04 19:24 | 47.45566 | 8.56861 | 1397 ft | 0 kts | 96° |
| 2026-05-04 19:25 | 47.45564 | 8.56896 | 1397 ft | 7 kts | 95° |
| 2026-05-04 19:25 | 47.45562 | 8.56955 | 1397 ft | 5 kts | 86° |
| 2026-05-04 19:25 | 47.45572 | 8.56987 | 1398 ft | 2 kts | 59° |
| 2026-05-04 19:26 | 47.45592 | 8.57008 | 1399 ft | 7 kts | 31° |
| 2026-05-04 19:26 | 47.45662 | 8.56993 | 1398 ft | 11 kts | 304° |
| 2026-05-04 19:26 | 47.45662 | 8.56975 | 1406 ft | 0 kts | 276° |
| 2026-05-04 19:27 | 47.45666 | 8.56909 | 1399 ft | 30 kts | 276° |
| 2026-05-04 19:27 | 47.45708 | 8.56263 | 1401 ft | 98 kts | 276° |
| 2026-05-04 19:27 | 47.45803 | 8.54961 | 1416 ft | 156 kts | 274° |
| 2026-05-04 19:28 | 47.45900 | 8.53789 | 1872 ft | 156 kts | 276° |
| 2026-05-04 19:28 | 47.46155 | 8.52323 | 2541 ft | 172 kts | 287° |
| 2026-05-04 19:28 | 47.46286 | 8.50525 | 3081 ft | 193 kts | 267° |
| 2026-05-04 19:28 | 47.45946 | 8.48985 | 3878 ft | 194 kts | 240° |
| 2026-05-04 19:29 | 47.45188 | 8.47362 | 4831 ft | 194 kts | 234° |
| 2026-05-04 19:29 | 47.44452 | 8.45921 | 5491 ft | 202 kts | 232° |
| 2026-05-04 19:29 | 47.43583 | 8.44234 | 5936 ft | 223 kts | 231° |
| 2026-05-04 19:29 | 47.42655 | 8.42418 | 6461 ft | 241 kts | 231° |
| 2026-05-04 19:30 | 47.41624 | 8.40348 | 7122 ft | 257 kts | 232° |
| 2026-05-04 19:30 | 47.40561 | 8.38145 | 7856 ft | 271 kts | 234° |
| 2026-05-04 19:30 | 47.39544 | 8.35861 | 8820 ft | 274 kts | 236° |
| 2026-05-04 19:30 | 47.38533 | 8.33381 | 9903 ft | 277 kts | 238° |
| 2026-05-04 19:31 | 47.37589 | 8.30899 | 10836 ft | 279 kts | 240° |
| 2026-05-04 19:31 | 47.36654 | 8.28319 | 11789 ft | 281 kts | 241° |
| 2026-05-04 19:31 | 47.35733 | 8.25732 | 12428 ft | 297 kts | 241° |
| 2026-05-04 19:31 | 47.34739 | 8.22916 | 13055 ft | 314 kts | 242° |
| 2026-05-04 19:32 | 47.33707 | 8.19979 | 13722 ft | 329 kts | 242° |
| 2026-05-04 19:32 | 47.32636 | 8.16945 | 14440 ft | 337 kts | 242° |
| 2026-05-04 19:32 | 47.31541 | 8.13852 | 15296 ft | 342 kts | 242° |
| 2026-05-04 19:32 | 47.30418 | 8.10686 | 16131 ft | 346 kts | 242° |
| 2026-05-04 19:33 | 47.29297 | 8.07525 | 16924 ft | 351 kts | 242° |
| 2026-05-04 19:33 | 47.28199 | 8.04691 | 17635 ft | 355 kts | 232° |
| 2026-05-04 19:33 | 47.26211 | 8.02109 | 18423 ft | 360 kts | 209° |
| 2026-05-04 19:33 | 47.23731 | 8.00938 | 19128 ft | 367 kts | 187° |
| 2026-05-04 19:34 | 47.21191 | 8.01214 | 19817 ft | 376 kts | 167° |
| 2026-05-04 19:34 | 47.18808 | 8.02853 | 20491 ft | 387 kts | 147° |
| 2026-05-04 19:34 | 47.16905 | 8.05684 | 21173 ft | 398 kts | 127° |
| 2026-05-04 19:34 | 47.16295 | 8.07197 | 21454 ft | 403 kts | 118° |
| 2026-05-04 19:35 | 47.15591 | 8.10172 | 21943 ft | 411 kts | 104° |
| 2026-05-04 19:35 | 47.15398 | 8.12927 | 22345 ft | 418 kts | 91° |
| 2026-05-04 19:35 | 47.15824 | 8.16944 | 22921 ft | 428 kts | 73° |
| 2026-05-04 19:35 | 47.17139 | 8.20868 | 23530 ft | 436 kts | 55° |
| 2026-05-04 19:36 | 47.19249 | 8.24114 | 24029 ft | 441 kts | 36° |
| 2026-05-04 19:36 | 47.21891 | 8.26392 | 24453 ft | 447 kts | 27° |
| 2026-05-04 19:36 | 47.24482 | 8.29060 | 24511 ft | 464 kts | 45° |
| 2026-05-04 19:36 | 47.26512 | 8.32802 | 24559 ft | 477 kts | 62° |
| 2026-05-04 19:37 | 47.27798 | 8.37368 | 24654 ft | 486 kts | 79° |
| 2026-05-04 19:37 | 47.28164 | 8.42338 | 25252 ft | 480 kts | 96° |
| 2026-05-04 19:37 | 47.27606 | 8.47100 | 26038 ft | 468 kts | 112° |
| 2026-05-04 19:37 | 47.26242 | 8.51270 | 26764 ft | 457 kts | 128° |
| 2026-05-04 19:38 | 47.24132 | 8.54697 | 27495 ft | 446 kts | 145° |
| 2026-05-04 19:38 | 47.21509 | 8.56974 | 28218 ft | 436 kts | 162° |
| 2026-05-04 19:38 | 47.18503 | 8.57958 | 28952 ft | 427 kts | 180° |
| 2026-05-04 19:38 | 47.15667 | 8.57553 | 29541 ft | 419 kts | 197° |
| 2026-05-04 19:39 | 47.12936 | 8.56137 | 29851 ft | 415 kts | 202° |
| 2026-05-04 19:39 | 47.10181 | 8.54628 | 29955 ft | 424 kts | 199° |
| 2026-05-04 19:39 | 47.07487 | 8.53540 | 29998 ft | 432 kts | 190° |
| 2026-05-04 19:40 | 47.01393 | 8.53542 | 29996 ft | 431 kts | 178° |
| 2026-05-04 19:40 | 46.95410 | 8.54317 | 30017 ft | 432 kts | 176° |
| 2026-05-04 19:41 | 46.89379 | 8.55211 | 30034 ft | 433 kts | 176° |
| 2026-05-04 19:41 | 46.83400 | 8.56111 | 30002 ft | 431 kts | 176° |
| 2026-05-04 19:42 | 46.77380 | 8.57011 | 30024 ft | 433 kts | 176° |
| 2026-05-04 19:42 | 46.72353 | 8.57748 | 30044 ft | 433 kts | 176° |
| 2026-05-04 19:43 | 46.66314 | 8.58616 | 30064 ft | 432 kts | 176° |
| 2026-05-04 19:43 | 46.60241 | 8.59479 | 30092 ft | 433 kts | 176° |
| 2026-05-04 19:44 | 46.54332 | 8.60317 | 30097 ft | 433 kts | 176° |
| 2026-05-04 19:44 | 46.48361 | 8.61162 | 30100 ft | 434 kts | 176° |
| 2026-05-04 19:45 | 46.42385 | 8.62008 | 30092 ft | 435 kts | 176° |
| 2026-05-04 19:45 | 46.36370 | 8.62859 | 30100 ft | 434 kts | 176° |
| 2026-05-04 19:46 | 46.30360 | 8.63707 | 30098 ft | 435 kts | 176° |
| 2026-05-04 19:46 | 46.24700 | 8.64503 | 30077 ft | 433 kts | 176° |
| 2026-05-04 19:47 | 46.19161 | 8.65276 | 30075 ft | 436 kts | 176° |
| 2026-05-04 19:47 | 46.14227 | 8.65956 | 30068 ft | 436 kts | 179° |
| 2026-05-04 19:48 | 46.11596 | 8.65951 | 30079 ft | 434 kts | 185° |
| 2026-05-04 19:48 | 46.05490 | 8.65120 | 30313 ft | 441 kts | 188° |
| 2026-05-04 19:48 | 46.02511 | 8.64600 | 30700 ft | 440 kts | 189° |
| 2026-05-04 19:49 | 45.99408 | 8.64031 | 30901 ft | 441 kts | 189° |
| 2026-05-04 19:49 | 45.96307 | 8.63441 | 31008 ft | 446 kts | 189° |
| 2026-05-04 19:49 | 45.93178 | 8.62833 | 31051 ft | 448 kts | 189° |
| 2026-05-04 19:50 | 45.86977 | 8.61611 | 31078 ft | 444 kts | 190° |
| 2026-05-04 19:50 | 45.80823 | 8.60387 | 31077 ft | 444 kts | 190° |
| 2026-05-04 19:51 | 45.75827 | 8.59388 | 31088 ft | 446 kts | 190° |
| 2026-05-04 19:51 | 45.68659 | 8.57951 | 31084 ft | 445 kts | 190° |
| 2026-05-04 19:52 | 45.63550 | 8.56927 | 31082 ft | 445 kts | 190° |
| 2026-05-04 19:52 | 45.57590 | 8.55733 | 31074 ft | 446 kts | 190° |
| 2026-05-04 19:53 | 45.51450 | 8.54505 | 31066 ft | 445 kts | 190° |
| 2026-05-04 19:53 | 45.45407 | 8.53299 | 31075 ft | 445 kts | 190° |
| 2026-05-04 19:54 | 45.39308 | 8.52085 | 31069 ft | 445 kts | 191° |
| 2026-05-04 19:54 | 45.33138 | 8.50858 | 31074 ft | 444 kts | 191° |
| 2026-05-04 19:55 | 45.27011 | 8.49642 | 31071 ft | 444 kts | 191° |
| 2026-05-04 19:55 | 45.20840 | 8.48420 | 31069 ft | 445 kts | 191° |
| 2026-05-04 19:56 | 45.14776 | 8.47222 | 31074 ft | 444 kts | 191° |
| 2026-05-04 19:56 | 45.08609 | 8.46006 | 31086 ft | 443 kts | 191° |
| 2026-05-04 19:57 | 45.02474 | 8.44792 | 31094 ft | 443 kts | 192° |
| 2026-05-04 19:57 | 44.96358 | 8.43584 | 31095 ft | 443 kts | 192° |
| 2026-05-04 19:58 | 44.90253 | 8.42383 | 31091 ft | 441 kts | 192° |
| 2026-05-04 19:58 | 44.84213 | 8.41195 | 31091 ft | 442 kts | 192° |
| 2026-05-04 19:59 | 44.78089 | 8.39989 | 31092 ft | 441 kts | 192° |
| 2026-05-04 19:59 | 44.72065 | 8.38807 | 31096 ft | 439 kts | 191° |
| 2026-05-04 20:00 | 44.66005 | 8.37621 | 31093 ft | 439 kts | 191° |
| 2026-05-04 20:00 | 44.60133 | 8.36476 | 31102 ft | 440 kts | 191° |
| 2026-05-04 20:01 | 44.54067 | 8.35296 | 31100 ft | 439 kts | 191° |
| 2026-05-04 20:01 | 44.48013 | 8.34119 | 31091 ft | 438 kts | 191° |
| 2026-05-04 20:02 | 44.41964 | 8.32951 | 31088 ft | 439 kts | 191° |
| 2026-05-04 20:02 | 44.35904 | 8.31787 | 31088 ft | 439 kts | 191° |
| 2026-05-04 20:03 | 44.30138 | 8.29464 | 31111 ft | 430 kts | 215° |
| 2026-05-04 20:03 | 44.27915 | 8.26706 | 31124 ft | 429 kts | 230° |
| 2026-05-04 20:03 | 44.26098 | 8.23404 | 31100 ft | 430 kts | 234° |
| 2026-05-04 20:04 | 44.22723 | 8.16526 | 31079 ft | 429 kts | 236° |
| 2026-05-04 20:04 | 44.19422 | 8.09604 | 31083 ft | 429 kts | 236° |
| 2026-05-04 20:05 | 44.16092 | 8.02710 | 31082 ft | 428 kts | 236° |
| 2026-05-04 20:05 | 44.12703 | 7.95842 | 31086 ft | 428 kts | 235° |
| 2026-05-04 20:06 | 44.09312 | 7.89060 | 31084 ft | 428 kts | 235° |
| 2026-05-04 20:06 | 44.05908 | 7.82302 | 31077 ft | 426 kts | 234° |
| 2026-05-04 20:07 | 44.02509 | 7.75561 | 31081 ft | 427 kts | 234° |
| 2026-05-04 20:07 | 43.99207 | 7.69001 | 31071 ft | 427 kts | 234° |
| 2026-05-04 20:08 | 43.95806 | 7.62256 | 31071 ft | 426 kts | 234° |
| 2026-05-04 20:08 | 43.92982 | 7.56668 | 31066 ft | 425 kts | 234° |